Princeton, Maine
Current Conditions -  °F | °C
As of 10:09 AM on Sunday 21 Dec 2014 (Local Time) from KMLT Reporting Station
Overcast Overcast  
Wind Chill: 24°   Ceiling: 2800
Heat Index: 24°   Visibility: 10mi
Dew Point: 20°   Wind: 0mph
Humidity: 84%   Direction: NA
Pressure: 30.38"   Gusts: NA
Location:  45.22°N, 67.57°W
Report Text: KMLT 211509Z AUTO 00000KT 10SM FEW020 OVC028 M04/M07 A3038 RMK AO2 T10441067
Loading
Personal Weather Stations






























Interactive Weather Map New forecast layout! Learn more

10-Day Weather Forecast

Advertisements
Track Severe Weather on mobile